Glory Ace — 3FAF9 — position and weather

sailwx.info

Track history (hours):
 
Tides and Currents Weather Stations Pressure Air Temp Water Temp Dewpoint Dewpoint Depression Visibility Wind Speed Wind Dir Waves Ship Positions

Glory Ace

Last reported at 2014-Oct-25 16:10 UTC. Time now 2014-Nov-28 08:29 UTC.
Position S 22°14' E 154°00'.
Warning: this ship's position is 33 days out of date.

Length 190 m; draft 10.9 m.

Type: Cargo ship. MMSI: 357130000.

Date/timePositionNaut miles runAvg speedWind from/ knotsBaromVisibWave heightAir tempDewpointWater temp
2014-Oct-25 16:10S 22°14' E 154°00'19010.1
2014-Oct-24 21:18S 25°23' E 153°47'910.2
2014-Oct-24 20:28S 25°32' E 153°46'10 9.5
2014-Oct-24 19:25S 25°42' E 153°45'10 9.3
2014-Oct-24 18:18S 25°52' E 153°44'8 9.7
2014-Oct-24 17:30S 25°60' E 153°44'1310.2
2014-Oct-24 16:15S 26°13' E 153°43'1110.7
2014-Oct-24 15:13S 26°24' E 153°42'810.3
2014-Oct-24 14:29S 26°31' E 153°42'2010.3
2014-Oct-24 12:33S 26°51' E 153°40'1010.2
2014-Oct-24 11:33S 27°01' E 153°40'10 9.9
2014-Oct-24 10:30S 27°12' E 153°39'1010.4
2014-Oct-24 09:33S 27°21' E 153°38'1010.1
2014-Oct-24 08:33S 27°32' E 153°39'10 9.7
2014-Oct-24 07:33S 27°41' E 153°40'9 9.4
2014-Oct-24 06:33S 27°50' E 153°41'9 9.2
2014-Oct-24 05:33S 27°60' E 153°42'9 9.0
2014-Oct-24 04:33S 28°09' E 153°43'235 9.3
2014-Oct-23 03:22S 31°59' E 152°47'7 9.2
2014-Oct-23 02:33S 32°06' E 152°44'23 9.5
2014-Oct-23 00:12S 32°28' E 152°38'6 8.9
2014-Oct-22 23:33S 32°33' E 152°34'9 9.2
2014-Oct-22 22:33S 32°39' E 152°27'9 9.4
2014-Oct-22 21:33S 32°46' E 152°19'9 9.2
2014-Oct-22 20:33S 32°51' E 152°10'10 9.5
2014-Oct-22 19:33S 32°54' E 151°59'10 9.6
2014-Oct-22 18:33S 32°55' E 151°48'2 1.6
2014-Oct-22 17:32S 32°54' E 151°46'0 0.0
2014-Oct-22 16:32S 32°54' E 151°46'0 0.0
2014-Oct-22 15:32S 32°54' E 151°46'0 0.0
2014-Oct-22 14:32S 32°54' E 151°46'0 0.0
2014-Oct-22 13:33S 32°54' E 151°46'0 0.0
2014-Oct-22 12:32S 32°54' E 151°46'0 0.0
2014-Oct-22 11:32S 32°54' E 151°46'0 0.0
2014-Oct-22 10:32S 32°54' E 151°46'0 0.0
2014-Oct-22 09:32S 32°54' E 151°46'0 0.0
2014-Oct-22 08:32S 32°54' E 151°46'0 0.0
2014-Oct-22 07:26S 32°54' E 151°46'0 0.0
2014-Oct-22 06:32S 32°54' E 151°46'0 0.0
2014-Oct-22 05:32S 32°54' E 151°46'0 0.0
2014-Oct-22 04:32S 32°54' E 151°46'0 0.0
2014-Oct-22 03:32S 32°54' E 151°46'0 0.0
2014-Oct-22 02:32S 32°54' E 151°46'0 0.0
2014-Oct-22 01:32S 32°54' E 151°46'0 0.0
2014-Oct-22 00:32S 32°54' E 151°46'0 0.0
2014-Oct-21 23:32S 32°54' E 151°46'0 0.0
2014-Oct-21 22:26S 32°54' E 151°46'0 0.0
2014-Oct-21 21:32S 32°54' E 151°46'0 0.0
2014-Oct-21 20:29S 32°54' E 151°46'0 0.0
2014-Oct-21 19:29S 32°54' E 151°46'0 0.0
2014-Oct-21 18:32S 32°54' E 151°46'0 0.0
2014-Oct-21 17:32S 32°54' E 151°46'0 0.0
2014-Oct-21 16:32S 32°54' E 151°46'1 0.5
2014-Oct-21 15:33S 32°54' E 151°46'6 5.7
2014-Oct-21 14:33S 32°58' E 151°51'4 4.4
2014-Oct-21 13:33S 33°02' E 151°50'8 0.2
2014-Oct-19 20:26S 33°08' E 151°44'0 0.3
2014-Oct-19 19:29S 33°08' E 151°44'0 0.0
2014-Oct-19 18:32S 33°08' E 151°44'0 0.0
2014-Oct-19 17:32S 33°08' E 151°44'0 0.0
2014-Oct-19 16:32S 33°08' E 151°44'0 0.0
2014-Oct-19 14:32S 33°08' E 151°44'0 0.0
2014-Oct-19 13:32S 33°08' E 151°44'0 0.0
2014-Oct-19 12:26S 33°08' E 151°44'0 0.0
2014-Oct-19 11:32S 33°08' E 151°44'0 0.0
2014-Oct-19 07:26S 33°08' E 151°44'0 0.0
2014-Oct-19 01:20S 33°08' E 151°44'0 0.0
2014-Oct-19 00:20S 33°08' E 151°44'0 0.0
2014-Oct-18 21:32S 33°08' E 151°44'0 0.0
2014-Oct-18 20:32S 33°08' E 151°44'8 0.5
2014-Oct-18 06:17S 33°04' E 151°51'912.1
2014-Oct-18 05:33S 32°58' E 151°60'1312.6
2014-Oct-18 04:33S 32°51' E 152°12'1212.3
2014-Oct-18 03:34S 32°42' E 152°22'1212.3
2014-Oct-18 02:33S 32°33' E 152°33'  
2014-Oct-15 21:15S 32°05' E 152°46'3 0.5
2014-Oct-15 16:30S 32°07' E 152°47'  
Track history (hours):
 
Tides and Currents Weather Stations Pressure Air Temp Water Temp Dewpoint Dewpoint Depression Visibility Wind Speed Wind Dir Waves Ship Positions

Glory Ace

Last reported at 2014-Oct-25 16:10 UTC. Time now 2014-Nov-28 08:29 UTC.
Position S 22°14' E 154°00'.
Warning: this ship's position is 33 days out of date.

Length 190 m; draft 10.9 m.

Type: Cargo ship. MMSI: 357130000.

Date/timePositionNaut miles runAvg speedWind from/ knotsBaromVisibWave heightAir tempDewpointWater temp
2014-Oct-25 16:10S 22°14' E 154°00'19010.1
2014-Oct-24 21:18S 25°23' E 153°47'910.2
2014-Oct-24 20:28S 25°32' E 153°46'10 9.5
2014-Oct-24 19:25S 25°42' E 153°45'10 9.3
2014-Oct-24 18:18S 25°52' E 153°44'8 9.7
2014-Oct-24 17:30S 25°60' E 153°44'1310.2
2014-Oct-24 16:15S 26°13' E 153°43'1110.7
2014-Oct-24 15:13S 26°24' E 153°42'810.3
2014-Oct-24 14:29S 26°31' E 153°42'2010.3
2014-Oct-24 12:33S 26°51' E 153°40'1010.2
2014-Oct-24 11:33S 27°01' E 153°40'10 9.9
2014-Oct-24 10:30S 27°12' E 153°39'1010.4
2014-Oct-24 09:33S 27°21' E 153°38'1010.1
2014-Oct-24 08:33S 27°32' E 153°39'10 9.7
2014-Oct-24 07:33S 27°41' E 153°40'9 9.4
2014-Oct-24 06:33S 27°50' E 153°41'9 9.2
2014-Oct-24 05:33S 27°60' E 153°42'9 9.0
2014-Oct-24 04:33S 28°09' E 153°43'235 9.3
2014-Oct-23 03:22S 31°59' E 152°47'7 9.2
2014-Oct-23 02:33S 32°06' E 152°44'23 9.5
2014-Oct-23 00:12S 32°28' E 152°38'6 8.9
2014-Oct-22 23:33S 32°33' E 152°34'9 9.2
2014-Oct-22 22:33S 32°39' E 152°27'9 9.4
2014-Oct-22 21:33S 32°46' E 152°19'9 9.2
2014-Oct-22 20:33S 32°51' E 152°10'10 9.5
2014-Oct-22 19:33S 32°54' E 151°59'10 9.6
2014-Oct-22 18:33S 32°55' E 151°48'2 1.6
2014-Oct-22 17:32S 32°54' E 151°46'0 0.0
2014-Oct-22 16:32S 32°54' E 151°46'0 0.0
2014-Oct-22 15:32S 32°54' E 151°46'0 0.0
2014-Oct-22 14:32S 32°54' E 151°46'0 0.0
2014-Oct-22 13:33S 32°54' E 151°46'0 0.0
2014-Oct-22 12:32S 32°54' E 151°46'0 0.0
2014-Oct-22 11:32S 32°54' E 151°46'0 0.0
2014-Oct-22 10:32S 32°54' E 151°46'0 0.0
2014-Oct-22 09:32S 32°54' E 151°46'0 0.0
2014-Oct-22 08:32S 32°54' E 151°46'0 0.0
2014-Oct-22 07:26S 32°54' E 151°46'0 0.0
2014-Oct-22 06:32S 32°54' E 151°46'0 0.0
2014-Oct-22 05:32S 32°54' E 151°46'0 0.0
2014-Oct-22 04:32S 32°54' E 151°46'0 0.0
2014-Oct-22 03:32S 32°54' E 151°46'0 0.0
2014-Oct-22 02:32S 32°54' E 151°46'0 0.0
2014-Oct-22 01:32S 32°54' E 151°46'0 0.0
2014-Oct-22 00:32S 32°54' E 151°46'0 0.0
2014-Oct-21 23:32S 32°54' E 151°46'0 0.0
2014-Oct-21 22:26S 32°54' E 151°46'0 0.0
2014-Oct-21 21:32S 32°54' E 151°46'0 0.0
2014-Oct-21 20:29S 32°54' E 151°46'0 0.0
2014-Oct-21 19:29S 32°54' E 151°46'0 0.0
2014-Oct-21 18:32S 32°54' E 151°46'0 0.0
2014-Oct-21 17:32S 32°54' E 151°46'0 0.0
2014-Oct-21 16:32S 32°54' E 151°46'1 0.5
2014-Oct-21 15:33S 32°54' E 151°46'6 5.7
2014-Oct-21 14:33S 32°58' E 151°51'4 4.4
2014-Oct-21 13:33S 33°02' E 151°50'8 0.2
2014-Oct-19 20:26S 33°08' E 151°44'0 0.3
2014-Oct-19 19:29S 33°08' E 151°44'0 0.0
2014-Oct-19 18:32S 33°08' E 151°44'0 0.0
2014-Oct-19 17:32S 33°08' E 151°44'0 0.0
2014-Oct-19 16:32S 33°08' E 151°44'0 0.0
2014-Oct-19 14:32S 33°08' E 151°44'0 0.0
2014-Oct-19 13:32S 33°08' E 151°44'0 0.0
2014-Oct-19 12:26S 33°08' E 151°44'0 0.0
2014-Oct-19 11:32S 33°08' E 151°44'0 0.0
2014-Oct-19 07:26S 33°08' E 151°44'0 0.0
2014-Oct-19 01:20S 33°08' E 151°44'0 0.0
2014-Oct-19 00:20S 33°08' E 151°44'0 0.0
2014-Oct-18 21:32S 33°08' E 151°44'0 0.0
2014-Oct-18 20:32S 33°08' E 151°44'8 0.5
2014-Oct-18 06:17S 33°04' E 151°51'912.1
2014-Oct-18 05:33S 32°58' E 151°60'1312.6
2014-Oct-18 04:33S 32°51' E 152°12'1212.3
2014-Oct-18 03:34S 32°42' E 152°22'1212.3
2014-Oct-18 02:33S 32°33' E 152°33'  
2014-Oct-15 21:15S 32°05' E 152°46'3 0.5
2014-Oct-15 16:30S 32°07' E 152°47'  

Dump ship's entire track history